createdAt,value
2019-05-17T00:02:07.971Z,14.22
2019-05-17T00:04:37.160Z,14.22
2019-05-17T00:07:06.700Z,14.26
2019-05-17T00:09:37.401Z,14.28
2019-05-17T00:12:07.530Z,14.29
2019-05-17T00:14:36.846Z,14.30
2019-05-17T00:17:06.814Z,14.24
2019-05-17T00:19:36.867Z,14.22
2019-05-17T00:22:07.302Z,14.24
2019-05-17T00:24:37.115Z,14.22
2019-05-17T00:27:06.827Z,14.21
2019-05-17T00:29:37.240Z,14.22
2019-05-17T00:32:06.605Z,14.23
2019-05-17T00:34:37.756Z,14.24
2019-05-17T00:37:07.185Z,14.24
2019-05-17T00:39:36.743Z,14.25
2019-05-17T00:42:06.947Z,14.23
2019-05-17T00:44:36.755Z,14.21
2019-05-17T00:47:06.509Z,14.19
2019-05-17T00:49:37.198Z,14.16
2019-05-17T00:52:07.243Z,14.18
2019-05-17T00:54:36.463Z,14.22
2019-05-17T00:57:07.473Z,14.24
2019-05-17T00:59:36.930Z,14.29
2019-05-17T01:02:06.968Z,14.33
2019-05-17T01:04:36.830Z,14.34
2019-05-17T01:07:06.947Z,14.36
2019-05-17T01:09:36.643Z,14.39
2019-05-17T01:12:07.125Z,14.42
2019-05-17T01:14:37.281Z,14.42
2019-05-17T01:17:07.211Z,14.42
2019-05-17T01:19:36.688Z,14.43
2019-05-17T01:22:07.527Z,14.46
2019-05-17T01:24:36.933Z,14.47
2019-05-17T01:27:06.679Z,14.48
2019-05-17T01:29:36.342Z,14.51
2019-05-17T01:32:06.735Z,14.54
2019-05-17T01:34:37.639Z,14.55
2019-05-17T01:37:07.219Z,14.55
2019-05-17T01:39:37.537Z,14.55
2019-05-17T01:42:06.924Z,14.55
2019-05-17T01:44:36.768Z,14.51
2019-05-17T01:47:07.365Z,14.48
2019-05-17T01:49:36.612Z,14.52
2019-05-17T01:52:07.520Z,14.51
2019-05-17T01:54:36.818Z,14.52
2019-05-17T01:57:07.388Z,14.53
2019-05-17T01:59:37.324Z,14.55
2019-05-17T02:02:09.328Z,13.55
2019-05-17T02:04:38.491Z,14.53
2019-05-17T02:07:07.523Z,14.58
2019-05-17T02:09:40.681Z,14.61
2019-05-17T02:12:07.333Z,14.64
2019-05-17T02:14:37.435Z,14.66
2019-05-17T02:17:06.956Z,14.66
2019-05-17T02:19:37.153Z,14.65
2019-05-17T02:22:07.437Z,14.66
2019-05-17T02:24:37.072Z,14.65
2019-05-17T02:27:06.248Z,14.63
2019-05-17T02:29:35.311Z,14.60
2019-05-17T02:32:04.382Z,14.55
2019-05-17T02:34:33.878Z,14.55
2019-05-17T02:37:03.255Z,14.55
2019-05-17T02:39:32.877Z,14.55
2019-05-17T02:42:02.769Z,14.53
2019-05-17T02:44:33.501Z,14.53
2019-05-17T02:47:03.309Z,14.51
2019-05-17T02:49:33.040Z,14.51
2019-05-17T02:52:03.308Z,14.51
2019-05-17T02:54:33.012Z,14.52
2019-05-17T02:57:03.247Z,14.54
2019-05-17T02:59:33.306Z,14.56
2019-05-17T03:02:03.419Z,14.53
2019-05-17T03:04:32.912Z,14.50
2019-05-17T03:07:03.735Z,14.50
2019-05-17T03:09:33.647Z,14.51
2019-05-17T03:12:03.530Z,14.47
2019-05-17T03:14:33.162Z,14.42
2019-05-17T03:17:03.297Z,14.43
2019-05-17T03:19:33.031Z,14.41
2019-05-17T03:22:06.768Z,14.39
2019-05-17T03:24:33.374Z,14.36
2019-05-17T03:27:03.125Z,14.35
2019-05-17T03:29:33.459Z,14.34
2019-05-17T03:32:08.734Z,14.33
2019-05-17T03:34:36.831Z,14.33
2019-05-17T03:37:06.311Z,14.31
2019-05-17T03:39:35.288Z,14.33
2019-05-17T03:42:04.341Z,14.35
2019-05-17T03:44:33.496Z,14.39
2019-05-17T03:47:02.584Z,14.41
2019-05-17T03:49:33.186Z,14.43
2019-05-17T03:52:02.960Z,14.43
2019-05-17T03:54:32.606Z,14.45
2019-05-17T03:57:02.907Z,14.48
2019-05-17T03:59:33.419Z,14.51
2019-05-17T04:02:03.474Z,14.51
2019-05-17T04:04:33.250Z,14.52
2019-05-17T04:07:03.361Z,14.52
2019-05-17T04:09:33.015Z,14.56
2019-05-17T04:12:03.293Z,14.58
2019-05-17T04:14:33.607Z,14.60
2019-05-17T04:17:03.151Z,14.62
2019-05-17T04:19:33.696Z,14.62
2019-05-17T04:22:03.760Z,14.57
2019-05-17T04:24:33.033Z,14.62
2019-05-17T04:27:03.557Z,14.62
2019-05-17T04:29:33.380Z,14.64
2019-05-17T04:32:03.894Z,14.57
2019-05-17T04:34:33.937Z,14.58
2019-05-17T04:37:04.286Z,14.55
2019-05-17T04:39:33.714Z,14.57
2019-05-17T04:42:03.765Z,14.58
2019-05-17T04:44:33.386Z,14.61
2019-05-17T04:47:03.401Z,14.64
2019-05-17T04:49:33.313Z,14.66
2019-05-17T04:52:05.683Z,14.64
2019-05-17T04:54:34.993Z,14.65
2019-05-17T04:57:04.160Z,14.69
2019-05-17T04:59:33.984Z,14.70
2019-05-17T05:02:03.719Z,14.71
2019-05-17T05:04:37.815Z,14.72
2019-05-17T05:07:04.204Z,14.79
2019-05-17T05:09:33.265Z,14.82
2019-05-17T05:12:06.103Z,14.84
2019-05-17T05:14:33.726Z,14.89
2019-05-17T05:17:02.844Z,14.93
2019-05-17T05:19:32.912Z,14.95
2019-05-17T05:22:04.437Z,15.00
2019-05-17T05:24:32.955Z,15.02
2019-05-17T05:27:02.618Z,15.04
2019-05-17T05:29:32.201Z,15.00
2019-05-17T05:32:02.609Z,15.05
2019-05-17T05:34:32.264Z,15.03
2019-05-17T05:37:02.125Z,14.99
2019-05-17T05:39:32.000Z,14.93
2019-05-17T05:42:09.032Z,14.91
2019-05-17T05:44:32.122Z,14.95
2019-05-17T05:47:02.169Z,14.96
2019-05-17T05:49:32.050Z,14.99
2019-05-17T05:52:02.129Z,14.99
2019-05-17T05:54:31.985Z,14.99
2019-05-17T05:57:02.261Z,15.00
2019-05-17T05:59:32.631Z,15.08
2019-05-17T06:02:02.262Z,15.09
2019-05-17T06:04:31.888Z,15.12
2019-05-17T06:07:02.967Z,15.13
2019-05-17T06:09:34.861Z,15.18
2019-05-17T06:12:03.987Z,15.21
2019-05-17T06:14:33.049Z,15.23
2019-05-17T06:17:03.026Z,15.15
2019-05-17T06:19:32.394Z,15.13
2019-05-17T06:22:02.784Z,15.17
2019-05-17T06:24:32.107Z,15.18
2019-05-17T06:27:01.916Z,15.15
2019-05-17T06:29:32.857Z,15.11
2019-05-17T06:32:02.530Z,15.22
2019-05-17T06:34:32.851Z,15.21
2019-05-17T06:37:02.491Z,15.29
2019-05-17T06:39:32.799Z,15.27
2019-05-17T06:42:02.873Z,15.34
2019-05-17T06:44:32.650Z,15.34
2019-05-17T06:47:02.614Z,15.40
2019-05-17T06:49:32.122Z,15.42
2019-05-17T06:52:02.418Z,15.49
2019-05-17T06:57:05.088Z,15.46
2019-05-17T06:59:34.281Z,15.50
2019-05-17T07:02:03.442Z,15.53
2019-05-17T07:04:34.760Z,15.55
2019-05-17T07:07:21.211Z,15.54
2019-05-17T07:09:50.330Z,15.61
2019-05-17T07:12:20.279Z,15.67
2019-05-17T07:14:50.697Z,15.68
2019-05-17T07:17:19.910Z,15.71
2019-05-17T07:19:50.758Z,15.77
2019-05-17T07:22:21.185Z,15.87
2019-05-17T07:24:50.482Z,16.01
2019-05-17T07:27:19.581Z,16.11
2019-05-17T07:29:49.748Z,16.14
2019-05-17T07:32:19.415Z,16.18
2019-05-17T07:34:50.803Z,16.31
2019-05-17T07:37:19.613Z,16.37
2019-05-17T07:40:00.537Z,16.38
2019-05-17T07:42:19.644Z,16.41
2019-05-17T07:44:49.732Z,16.37
2019-05-17T07:47:20.292Z,16.43
2019-05-17T07:49:49.549Z,16.46
2019-05-17T07:52:20.601Z,16.46
2019-05-17T07:54:50.868Z,16.43
2019-05-17T07:57:20.707Z,16.41
2019-05-17T07:59:50.765Z,16.43
2019-05-17T08:02:19.953Z,16.48
2019-05-17T08:04:50.122Z,16.57
2019-05-17T08:07:20.427Z,16.65
2019-05-17T08:09:50.653Z,16.82
2019-05-17T08:12:20.024Z,16.87
2019-05-17T08:14:50.276Z,16.90
2019-05-17T08:17:19.908Z,16.90
2019-05-17T08:19:49.787Z,16.92
2019-05-17T08:22:20.150Z,16.93
2019-05-17T08:24:49.477Z,16.94
2019-05-17T08:27:20.089Z,16.97
2019-05-17T08:29:49.969Z,16.98
2019-05-17T08:32:20.770Z,17.02
2019-05-17T08:34:52.425Z,17.01
2019-05-17T08:37:22.611Z,15.15
2019-05-17T08:39:51.679Z,16.93
2019-05-17T08:42:20.841Z,16.96
2019-05-17T08:44:51.476Z,16.94
2019-05-17T08:47:22.987Z,17.00
2019-05-17T08:49:53.923Z,17.06
2019-05-17T08:52:23.918Z,17.08
2019-05-17T08:54:54.497Z,17.16
2019-05-17T08:57:50.412Z,17.30
2019-05-17T09:00:20.668Z,17.37
2019-05-17T09:02:50.166Z,17.43
2019-05-17T09:05:21.174Z,17.46
2019-05-17T09:07:50.180Z,17.54
2019-05-17T09:10:20.850Z,17.67
2019-05-17T09:12:50.347Z,17.73
2019-05-17T09:15:20.413Z,17.68
2019-05-17T09:17:50.020Z,17.66
2019-05-17T09:20:20.459Z,17.66
2019-05-17T09:22:51.033Z,17.66
2019-05-17T09:25:22.105Z,17.63
2019-05-17T09:27:51.196Z,17.78
2019-05-17T09:30:20.943Z,17.95
2019-05-17T09:32:50.443Z,18.00
2019-05-17T09:35:20.829Z,17.90
2019-05-17T09:37:50.388Z,17.94
2019-05-17T09:40:20.132Z,17.91
2019-05-17T09:42:49.949Z,17.87
2019-05-17T09:45:20.219Z,17.82
2019-05-17T09:47:50.550Z,17.84
2019-05-17T09:50:20.094Z,17.85
2019-05-17T09:52:49.559Z,17.94
2019-05-17T09:55:19.655Z,18.02
2019-05-17T09:57:49.662Z,18.10
2019-05-17T10:00:20.827Z,18.14
2019-05-17T10:02:50.745Z,18.19
2019-05-17T10:05:20.324Z,18.14
2019-05-17T10:07:50.732Z,18.20
2019-05-17T10:10:20.445Z,18.22
2019-05-17T10:12:50.088Z,18.09
2019-05-17T10:15:20.716Z,17.99
2019-05-17T10:17:50.141Z,17.86
2019-05-17T10:20:20.004Z,17.83
2019-05-17T10:22:50.485Z,17.79
2019-05-17T10:25:20.174Z,17.81
2019-05-17T10:27:49.827Z,17.80
2019-05-17T10:30:20.936Z,17.86
2019-05-17T10:32:50.685Z,17.86
2019-05-17T10:35:20.283Z,17.74
2019-05-17T10:37:50.542Z,17.71
2019-05-17T10:40:21.003Z,17.77
2019-05-17T10:42:50.180Z,17.90
2019-05-17T10:45:19.842Z,17.98
2019-05-17T10:47:50.239Z,18.06
2019-05-17T10:50:20.544Z,18.14
2019-05-17T10:52:50.056Z,18.21
2019-05-17T10:55:20.023Z,18.27
2019-05-17T10:57:49.968Z,18.34
2019-05-17T11:00:19.701Z,18.39
2019-05-17T11:02:50.353Z,18.44
2019-05-17T11:05:20.167Z,18.53
2019-05-17T11:07:50.415Z,18.62
2019-05-17T11:10:19.840Z,18.70
2019-05-17T11:12:48.832Z,18.78
2019-05-17T11:15:17.926Z,18.83
2019-05-17T11:17:47.041Z,18.84
2019-05-17T11:20:16.106Z,18.85
2019-05-17T11:22:45.119Z,18.86
2019-05-17T11:25:14.331Z,18.85
2019-05-17T11:27:43.484Z,18.81
2019-05-17T11:30:12.503Z,18.74
2019-05-17T11:32:41.579Z,18.70
2019-05-17T11:35:10.788Z,18.66
2019-05-17T11:37:39.845Z,18.60
2019-05-17T11:40:08.995Z,18.67
2019-05-17T11:42:38.060Z,18.77
2019-05-17T11:45:09.859Z,19.00
2019-05-17T11:47:38.942Z,19.40
2019-05-17T11:50:08.690Z,19.83
2019-05-17T11:52:37.775Z,20.29
2019-05-17T11:55:06.922Z,20.80
2019-05-17T11:57:36.134Z,21.34
2019-05-17T12:00:08.433Z,21.74
2019-05-17T12:02:37.495Z,22.00
2019-05-17T12:05:06.600Z,22.17
2019-05-17T12:07:38.013Z,22.18
2019-05-17T12:10:07.248Z,22.09
2019-05-17T12:12:36.525Z,21.93
2019-05-17T12:15:05.582Z,21.87
2019-05-17T12:17:34.978Z,21.85
2019-05-17T12:20:07.140Z,21.73
2019-05-17T12:22:36.378Z,21.66
2019-05-17T12:25:06.666Z,21.55
2019-05-17T12:27:35.944Z,21.39
2019-05-17T12:30:05.687Z,21.15
2019-05-17T12:32:34.836Z,21.05
2019-05-17T12:35:04.057Z,21.00
2019-05-17T12:37:33.204Z,20.95
2019-05-17T12:40:02.314Z,20.94
2019-05-17T12:42:31.353Z,21.01
2019-05-17T12:45:00.533Z,18.88
2019-05-17T12:47:29.723Z,21.36
2019-05-17T12:49:59.096Z,21.62
2019-05-17T12:52:28.224Z,21.87
2019-05-17T12:54:57.286Z,22.05
2019-05-17T12:57:27.455Z,22.21
2019-05-17T12:59:56.508Z,22.43
2019-05-17T13:02:25.562Z,22.69
2019-05-17T13:04:54.626Z,22.86
2019-05-17T13:07:24.500Z,22.94
2019-05-17T13:09:53.569Z,22.97
2019-05-17T13:12:22.585Z,22.84
2019-05-17T13:14:51.728Z,22.86
2019-05-17T13:17:20.798Z,22.89
2019-05-17T13:19:53.181Z,22.83
2019-05-17T13:22:22.280Z,22.78
2019-05-17T13:24:51.415Z,22.67
2019-05-17T13:27:20.405Z,22.68
2019-05-17T13:29:49.454Z,22.72
2019-05-17T13:32:18.535Z,22.57
2019-05-17T13:34:47.607Z,22.46
2019-05-17T13:37:16.642Z,22.38
2019-05-17T13:39:45.676Z,22.31
2019-05-17T13:42:14.757Z,22.20
2019-05-17T13:44:43.752Z,22.12
2019-05-17T13:47:12.817Z,22.12
2019-05-17T13:49:41.949Z,22.10
2019-05-17T13:52:11.113Z,22.07
2019-05-17T13:54:40.155Z,21.99
2019-05-17T13:57:11.356Z,21.92
2019-05-17T13:59:39.994Z,21.93
2019-05-17T14:02:08.995Z,22.00
2019-05-17T14:04:38.058Z,22.18
2019-05-17T14:07:07.063Z,22.46
2019-05-17T14:09:36.111Z,22.74
2019-05-17T14:12:05.236Z,22.89
2019-05-17T14:14:37.059Z,22.99
2019-05-17T14:17:06.351Z,23.00
2019-05-17T14:19:35.431Z,22.92
2019-05-17T14:22:04.569Z,22.74
2019-05-17T14:24:33.801Z,22.59
2019-05-17T14:27:02.825Z,22.40
2019-05-17T14:29:31.835Z,22.21
2019-05-17T14:38:39.212Z,21.86
2019-05-17T14:41:09.015Z,21.76
2019-05-17T14:43:39.189Z,21.96
2019-05-17T14:46:08.357Z,22.19
2019-05-17T14:48:37.522Z,22.38
2019-05-17T14:51:06.757Z,22.60
2019-05-17T14:53:35.862Z,22.76
2019-05-17T14:56:05.139Z,22.92
2019-05-17T14:58:36.515Z,23.00
2019-05-17T15:01:05.606Z,23.10
2019-05-17T15:03:36.565Z,23.09
2019-05-17T15:06:07.142Z,23.08
2019-05-17T15:08:36.254Z,23.00
2019-05-17T15:11:05.439Z,22.95
2019-05-17T15:13:34.678Z,22.85
2019-05-17T15:16:04.425Z,22.77
2019-05-17T15:18:33.518Z,22.67
2019-05-17T15:21:02.603Z,22.59
2019-05-17T15:23:32.458Z,22.54
2019-05-17T15:26:01.620Z,22.46
2019-05-17T15:28:30.803Z,22.36
2019-05-17T15:30:59.999Z,22.33
2019-05-17T15:33:29.356Z,22.29
2019-05-17T15:35:58.525Z,22.23
2019-05-17T15:38:27.951Z,22.11
2019-05-17T15:40:57.346Z,22.09
2019-05-17T15:43:26.712Z,22.06
2019-05-17T15:45:55.892Z,21.99
2019-05-17T15:48:25.139Z,21.97
2019-05-17T15:50:54.244Z,21.92
2019-05-17T15:53:23.327Z,21.87
2019-05-17T15:55:52.601Z,21.84
2019-05-17T15:58:21.896Z,21.78
2019-05-17T16:00:51.497Z,21.74
2019-05-17T16:03:20.810Z,21.67
2019-05-17T16:05:50.024Z,21.59
2019-05-17T16:08:19.120Z,21.53
2019-05-17T16:10:48.187Z,21.46
2019-05-17T16:13:17.253Z,21.39
2019-05-17T16:15:46.350Z,21.32
2019-05-17T16:18:15.483Z,21.30
2019-05-17T16:20:45.643Z,21.25
2019-05-17T16:23:14.901Z,21.22
2019-05-17T16:25:44.122Z,21.23
2019-05-17T16:28:13.307Z,21.27
2019-05-17T16:30:45.755Z,21.19
2019-05-17T16:33:15.614Z,21.09
2019-05-17T16:35:45.910Z,21.08
2019-05-17T16:38:15.587Z,21.07
2019-05-17T16:40:45.088Z,20.99
2019-05-17T16:43:18.062Z,20.92
2019-05-17T16:45:45.642Z,20.88
2019-05-17T16:48:17.631Z,20.87
2019-05-17T16:50:47.186Z,20.87
2019-05-17T16:53:19.562Z,20.95
2019-05-17T16:55:48.687Z,21.01
2019-05-17T16:58:18.385Z,21.04
2019-05-17T17:00:47.514Z,21.04
2019-05-17T17:03:16.636Z,21.07
2019-05-17T17:05:46.129Z,21.04
2019-05-17T17:08:15.283Z,21.05
2019-05-17T17:10:44.374Z,21.02
2019-05-17T17:13:13.606Z,20.99
2019-05-17T17:15:42.736Z,20.95
2019-05-17T17:18:11.966Z,20.89
2019-05-17T17:20:41.244Z,20.84
2019-05-17T17:23:10.434Z,20.79
2019-05-17T17:25:39.666Z,20.68
2019-05-17T17:28:09.001Z,20.61
2019-05-17T17:30:38.093Z,20.58
2019-05-17T17:33:07.257Z,20.56
2019-05-17T17:35:36.916Z,20.51
2019-05-17T17:38:06.414Z,20.52
2019-05-17T17:40:35.832Z,20.54
2019-05-17T17:43:05.078Z,20.53
2019-05-17T17:45:34.419Z,20.51
2019-05-17T17:48:03.633Z,20.49
2019-05-17T17:50:32.913Z,20.46
2019-05-17T17:53:02.040Z,20.47
2019-05-17T17:55:31.326Z,20.44
2019-05-17T17:58:00.504Z,20.38
2019-05-17T18:00:29.747Z,20.36
2019-05-17T18:03:00.108Z,20.35
2019-05-17T18:05:29.539Z,20.30
2019-05-17T18:07:58.561Z,20.28
2019-05-17T18:10:29.573Z,20.27
2019-05-17T18:12:58.801Z,20.19
2019-05-17T18:15:37.385Z,20.15
2019-05-17T18:18:06.624Z,20.15
2019-05-17T18:20:35.858Z,20.14
2019-05-17T18:23:05.007Z,20.11
2019-05-17T18:25:36.741Z,20.11
2019-05-17T18:28:06.054Z,20.10
2019-05-17T18:30:35.489Z,20.07
2019-05-17T18:33:04.652Z,20.05
2019-05-17T18:35:33.990Z,20.02
2019-05-17T18:38:03.136Z,19.98
2019-05-17T18:40:32.234Z,19.96
2019-05-17T18:43:01.303Z,19.92
2019-05-17T18:45:30.463Z,19.95
2019-05-17T18:47:59.633Z,19.95
2019-05-17T18:50:29.147Z,19.94
2019-05-17T18:52:58.706Z,19.95
2019-05-17T18:55:28.304Z,19.93
2019-05-17T18:58:00.268Z,19.89
2019-05-17T19:00:31.735Z,19.86
2019-05-17T19:03:00.929Z,19.83
2019-05-17T19:05:31.818Z,19.82
2019-05-17T19:08:01.319Z,19.81
2019-05-17T19:10:30.557Z,19.80
2019-05-17T19:12:59.755Z,19.78
2019-05-17T19:15:29.058Z,19.73
2019-05-17T19:17:58.888Z,19.68
2019-05-17T19:20:28.155Z,19.62
2019-05-17T19:22:57.858Z,19.61
2019-05-17T19:25:28.697Z,19.54
2019-05-17T19:27:57.893Z,19.50
2019-05-17T19:30:27.174Z,19.47
2019-05-17T19:32:56.386Z,19.46
2019-05-17T19:35:25.622Z,19.46
2019-05-17T19:37:55.152Z,19.46
2019-05-17T19:40:24.400Z,19.45
2019-05-17T19:42:53.648Z,19.45
2019-05-17T19:45:23.076Z,19.45
2019-05-17T19:47:52.315Z,19.42
2019-05-17T19:50:21.549Z,19.42
2019-05-17T19:52:50.851Z,19.42
2019-05-17T19:55:19.926Z,19.39
2019-05-17T19:57:49.046Z,19.37
2019-05-17T20:00:19.853Z,19.35
2019-05-17T20:02:49.090Z,19.33
2019-05-17T20:05:18.205Z,19.31
2019-05-17T20:07:47.294Z,19.27
2019-05-17T20:10:16.470Z,19.23
2019-05-17T20:12:45.569Z,19.19
2019-05-17T20:15:17.938Z,19.17
2019-05-17T20:17:45.608Z,19.15
2019-05-17T20:20:15.380Z,19.14
2019-05-17T20:22:44.482Z,19.12
2019-05-17T20:25:13.601Z,19.10
2019-05-17T20:27:42.842Z,19.11
2019-05-17T20:30:12.065Z,19.09
2019-05-17T20:32:41.214Z,19.07
2019-05-17T20:35:10.393Z,19.05
2019-05-17T20:37:39.541Z,19.04
2019-05-17T20:40:08.769Z,19.03
2019-05-17T20:42:37.838Z,19.01
2019-05-17T20:45:07.334Z,19.00
2019-05-17T20:47:36.524Z,18.98
2019-05-17T20:50:09.090Z,18.97
2019-05-17T20:52:38.214Z,18.98
2019-05-17T20:55:07.560Z,18.99
2019-05-17T20:57:38.456Z,18.98
2019-05-17T21:00:07.567Z,18.96
2019-05-17T21:02:39.528Z,18.48
2019-05-17T21:05:08.782Z,18.88
2019-05-17T21:07:38.129Z,18.86
2019-05-17T21:10:07.293Z,18.84
2019-05-17T21:12:39.326Z,18.79
2019-05-17T21:15:08.632Z,18.73
2019-05-17T21:17:38.483Z,18.70
2019-05-17T21:20:08.478Z,18.69
2019-05-17T21:22:37.662Z,18.68
2019-05-17T21:25:07.371Z,18.64
2019-05-17T21:27:36.751Z,18.62
2019-05-17T21:30:06.058Z,18.59
2019-05-17T21:32:35.263Z,18.56
2019-05-17T21:35:04.644Z,18.54
2019-05-17T21:37:33.823Z,18.50
2019-05-17T21:40:03.073Z,18.46
2019-05-17T21:42:32.280Z,18.45
2019-05-17T21:45:01.441Z,18.40
2019-05-17T21:47:30.552Z,18.39
2019-05-17T21:50:01.939Z,18.35
2019-05-17T21:52:31.103Z,18.34
2019-05-17T21:55:00.305Z,18.29
2019-05-17T21:57:29.620Z,18.25
2019-05-17T21:59:58.858Z,18.20
2019-05-17T22:02:29.425Z,18.18
2019-05-17T22:04:59.932Z,18.13
2019-05-17T22:07:31.107Z,18.08
2019-05-17T22:10:04.483Z,17.98
2019-05-17T22:12:33.582Z,17.88
2019-05-17T22:15:02.929Z,17.78
2019-05-17T22:17:32.036Z,17.69
2019-05-17T22:20:01.229Z,17.63
2019-05-17T22:22:30.464Z,17.56
2019-05-17T22:24:59.685Z,17.49
2019-05-17T22:27:31.967Z,17.41
2019-05-17T22:30:01.098Z,17.34
2019-05-17T22:32:30.261Z,17.25
2019-05-17T22:34:59.561Z,17.17
2019-05-17T22:37:28.737Z,17.11
2019-05-17T22:39:57.801Z,17.06
2019-05-17T22:42:27.188Z,17.02
2019-05-17T22:44:56.294Z,16.96
2019-05-17T22:47:25.422Z,16.90
2019-05-17T22:49:54.479Z,16.83
2019-05-17T22:52:23.565Z,16.78
2019-05-17T22:54:52.623Z,16.73
2019-05-17T22:57:21.746Z,16.67
2019-05-17T22:59:51.694Z,16.62
2019-05-17T23:02:20.953Z,16.56
2019-05-17T23:04:50.040Z,16.51
2019-05-17T23:07:19.172Z,16.47
2019-05-17T23:09:48.325Z,16.43
2019-05-17T23:12:17.519Z,16.37
2019-05-17T23:14:46.650Z,16.33
2019-05-17T23:17:15.839Z,16.28
2019-05-17T23:19:45.071Z,16.23
2019-05-17T23:22:14.281Z,16.19
2019-05-17T23:24:43.397Z,16.17
2019-05-17T23:27:12.489Z,16.13
2019-05-17T23:29:41.531Z,16.09
2019-05-17T23:32:11.445Z,16.06
2019-05-17T23:34:40.518Z,16.02
2019-05-17T23:37:09.710Z,15.99
2019-05-17T23:39:38.743Z,15.95
2019-05-17T23:42:07.904Z,15.90
2019-05-17T23:44:37.198Z,15.85
2019-05-17T23:47:07.529Z,15.82
2019-05-17T23:49:36.829Z,15.80
2019-05-17T23:52:06.087Z,15.75
2019-05-17T23:54:35.243Z,15.71
2019-05-17T23:57:05.536Z,15.67
2019-05-17T23:59:34.675Z,15.64
